sensor_id;sensor_type;location;lat;lon;timestamp;P1;durP1;ratioP1;P2;durP2;ratioP2
17369;SDS011;8802;52.402;4.920;2022-08-03T00:01:33;5.30;;;1.80;;
17369;SDS011;8802;52.402;4.920;2022-08-03T00:04:00;4.95;;;1.77;;
17369;SDS011;8802;52.402;4.920;2022-08-03T00:06:27;8.65;;;2.33;;
17369;SDS011;8802;52.402;4.920;2022-08-03T00:08:54;7.63;;;2.13;;
17369;SDS011;8802;52.402;4.920;2022-08-03T00:11:21;7.00;;;1.63;;
17369;SDS011;8802;52.402;4.920;2022-08-03T00:13:48;6.35;;;1.90;;
17369;SDS011;8802;52.402;4.920;2022-08-03T00:16:16;7.28;;;1.80;;
17369;SDS011;8802;52.402;4.920;2022-08-03T00:18:43;6.00;;;2.00;;
17369;SDS011;8802;52.402;4.920;2022-08-03T00:21:10;8.40;;;1.92;;
17369;SDS011;8802;52.402;4.920;2022-08-03T00:23:37;6.85;;;2.10;;
17369;SDS011;8802;52.402;4.920;2022-08-03T00:26:04;6.18;;;1.77;;
17369;SDS011;8802;52.402;4.920;2022-08-03T00:28:31;6.20;;;1.40;;
17369;SDS011;8802;52.402;4.920;2022-08-03T00:30:58;8.77;;;1.85;;
17369;SDS011;8802;52.402;4.920;2022-08-03T00:33:26;9.48;;;2.05;;
17369;SDS011;8802;52.402;4.920;2022-08-03T00:35:53;7.65;;;1.45;;
17369;SDS011;8802;52.402;4.920;2022-08-03T00:38:20;4.25;;;1.52;;
17369;SDS011;8802;52.402;4.920;2022-08-03T00:40:47;6.18;;;1.73;;
17369;SDS011;8802;52.402;4.920;2022-08-03T00:43:14;6.68;;;1.75;;
17369;SDS011;8802;52.402;4.920;2022-08-03T00:45:41;7.00;;;1.77;;
17369;SDS011;8802;52.402;4.920;2022-08-03T00:48:09;8.50;;;1.95;;
17369;SDS011;8802;52.402;4.920;2022-08-03T00:50:39;9.60;;;2.17;;
17369;SDS011;8802;52.402;4.920;2022-08-03T00:53:08;5.85;;;1.85;;
17369;SDS011;8802;52.402;4.920;2022-08-03T00:55:37;10.02;;;2.03;;
17369;SDS011;8802;52.402;4.920;2022-08-03T00:58:04;8.52;;;2.40;;
17369;SDS011;8802;52.402;4.920;2022-08-03T01:00:33;7.90;;;2.10;;
17369;SDS011;8802;52.402;4.920;2022-08-03T01:03:02;6.97;;;1.75;;
17369;SDS011;8802;52.402;4.920;2022-08-03T01:05:30;8.65;;;1.73;;
17369;SDS011;8802;52.402;4.920;2022-08-03T01:08:07;7.03;;;2.13;;
17369;SDS011;8802;52.402;4.920;2022-08-03T01:10:44;10.13;;;2.08;;
17369;SDS011;8802;52.402;4.920;2022-08-03T01:13:28;6.18;;;2.00;;
17369;SDS011;8802;52.402;4.920;2022-08-03T01:16:00;10.40;;;2.33;;
17369;SDS011;8802;52.402;4.920;2022-08-03T01:18:35;7.43;;;1.55;;
17369;SDS011;8802;52.402;4.920;2022-08-03T01:21:07;12.43;;;2.47;;
17369;SDS011;8802;52.402;4.920;2022-08-03T01:23:56;7.65;;;1.77;;
17369;SDS011;8802;52.402;4.920;2022-08-03T01:29:39;7.40;;;1.80;;
17369;SDS011;8802;52.402;4.920;2022-08-03T01:32:22;8.23;;;2.17;;
17369;SDS011;8802;52.402;4.920;2022-08-03T01:34:54;9.88;;;1.88;;
17369;SDS011;8802;52.402;4.920;2022-08-03T01:37:28;6.15;;;1.55;;
17369;SDS011;8802;52.402;4.920;2022-08-03T01:40:00;9.70;;;1.90;;
17369;SDS011;8802;52.402;4.920;2022-08-03T01:42:29;9.07;;;1.60;;
17369;SDS011;8802;52.402;4.920;2022-08-03T01:44:59;7.43;;;1.90;;
17369;SDS011;8802;52.402;4.920;2022-08-03T01:47:27;6.75;;;2.20;;
17369;SDS011;8802;52.402;4.920;2022-08-03T01:49:55;8.98;;;2.15;;
17369;SDS011;8802;52.402;4.920;2022-08-03T01:52:23;7.70;;;2.38;;
17369;SDS011;8802;52.402;4.920;2022-08-03T01:54:51;8.10;;;1.90;;
17369;SDS011;8802;52.402;4.920;2022-08-03T01:57:19;9.98;;;2.03;;
17369;SDS011;8802;52.402;4.920;2022-08-03T01:59:48;9.43;;;1.88;;
17369;SDS011;8802;52.402;4.920;2022-08-03T02:02:18;7.50;;;2.00;;
17369;SDS011;8802;52.402;4.920;2022-08-03T02:04:46;7.20;;;1.95;;
17369;SDS011;8802;52.402;4.920;2022-08-03T02:07:15;9.20;;;2.10;;
17369;SDS011;8802;52.402;4.920;2022-08-03T02:09:43;6.70;;;2.00;;
17369;SDS011;8802;52.402;4.920;2022-08-03T02:12:14;10.85;;;2.15;;
17369;SDS011;8802;52.402;4.920;2022-08-03T02:14:42;9.25;;;1.98;;
17369;SDS011;8802;52.402;4.920;2022-08-03T02:17:10;9.73;;;2.35;;
17369;SDS011;8802;52.402;4.920;2022-08-03T02:19:40;6.10;;;2.08;;
17369;SDS011;8802;52.402;4.920;2022-08-03T02:22:09;6.85;;;2.10;;
17369;SDS011;8802;52.402;4.920;2022-08-03T02:24:37;12.00;;;2.40;;
17369;SDS011;8802;52.402;4.920;2022-08-03T02:27:05;9.10;;;2.20;;
17369;SDS011;8802;52.402;4.920;2022-08-03T02:29:37;7.40;;;2.10;;
17369;SDS011;8802;52.402;4.920;2022-08-03T02:32:05;9.65;;;3.00;;
17369;SDS011;8802;52.402;4.920;2022-08-03T02:34:37;5.18;;;1.92;;
17369;SDS011;8802;52.402;4.920;2022-08-03T02:37:09;8.23;;;2.42;;
17369;SDS011;8802;52.402;4.920;2022-08-03T02:39:38;6.85;;;2.20;;
17369;SDS011;8802;52.402;4.920;2022-08-03T02:42:07;7.70;;;2.00;;
17369;SDS011;8802;52.402;4.920;2022-08-03T02:44:35;7.03;;;2.15;;
17369;SDS011;8802;52.402;4.920;2022-08-03T02:47:04;10.90;;;2.25;;
17369;SDS011;8802;52.402;4.920;2022-08-03T02:49:36;9.63;;;2.13;;
17369;SDS011;8802;52.402;4.920;2022-08-03T02:52:05;9.88;;;2.40;;
17369;SDS011;8802;52.402;4.920;2022-08-03T02:54:35;10.73;;;2.10;;
17369;SDS011;8802;52.402;4.920;2022-08-03T02:57:04;6.72;;;1.98;;
17369;SDS011;8802;52.402;4.920;2022-08-03T02:59:33;7.55;;;2.00;;
17369;SDS011;8802;52.402;4.920;2022-08-03T03:02:01;4.95;;;1.70;;
17369;SDS011;8802;52.402;4.920;2022-08-03T03:04:29;7.95;;;1.95;;
17369;SDS011;8802;52.402;4.920;2022-08-03T03:06:56;5.00;;;1.95;;
17369;SDS011;8802;52.402;4.920;2022-08-03T03:09:25;6.80;;;1.90;;
17369;SDS011;8802;52.402;4.920;2022-08-03T03:11:53;8.40;;;2.20;;
17369;SDS011;8802;52.402;4.920;2022-08-03T03:14:21;6.75;;;2.03;;
17369;SDS011;8802;52.402;4.920;2022-08-03T03:16:49;5.15;;;2.10;;
17369;SDS011;8802;52.402;4.920;2022-08-03T03:19:18;8.65;;;2.10;;
17369;SDS011;8802;52.402;4.920;2022-08-03T03:21:46;6.65;;;2.22;;
17369;SDS011;8802;52.402;4.920;2022-08-03T03:24:13;6.78;;;2.17;;
17369;SDS011;8802;52.402;4.920;2022-08-03T03:26:42;5.20;;;2.20;;
17369;SDS011;8802;52.402;4.920;2022-08-03T03:29:10;5.70;;;2.00;;
17369;SDS011;8802;52.402;4.920;2022-08-03T03:31:37;7.43;;;1.98;;
17369;SDS011;8802;52.402;4.920;2022-08-03T03:34:05;5.78;;;1.52;;
17369;SDS011;8802;52.402;4.920;2022-08-03T03:36:32;5.47;;;1.90;;
17369;SDS011;8802;52.402;4.920;2022-08-03T03:38:59;5.43;;;1.95;;
17369;SDS011;8802;52.402;4.920;2022-08-03T03:41:26;3.85;;;1.58;;
17369;SDS011;8802;52.402;4.920;2022-08-03T03:43:54;5.07;;;1.83;;
17369;SDS011;8802;52.402;4.920;2022-08-03T03:46:21;5.18;;;2.10;;
17369;SDS011;8802;52.402;4.920;2022-08-03T03:48:48;8.15;;;2.33;;
17369;SDS011;8802;52.402;4.920;2022-08-03T03:51:15;7.00;;;2.00;;
17369;SDS011;8802;52.402;4.920;2022-08-03T03:53:53;6.85;;;2.20;;
17369;SDS011;8802;52.402;4.920;2022-08-03T03:56:21;6.03;;;2.00;;
17369;SDS011;8802;52.402;4.920;2022-08-03T03:58:48;6.32;;;2.20;;
17369;SDS011;8802;52.402;4.920;2022-08-03T04:01:16;6.00;;;1.92;;
17369;SDS011;8802;52.402;4.920;2022-08-03T04:03:43;6.40;;;2.65;;
17369;SDS011;8802;52.402;4.920;2022-08-03T04:06:10;7.00;;;2.15;;
17369;SDS011;8802;52.402;4.920;2022-08-03T04:08:56;7.90;;;2.15;;
17369;SDS011;8802;52.402;4.920;2022-08-03T04:11:42;6.25;;;2.10;;
17369;SDS011;8802;52.402;4.920;2022-08-03T04:14:15;11.55;;;2.47;;
17369;SDS011;8802;52.402;4.920;2022-08-03T04:16:48;4.82;;;2.15;;
17369;SDS011;8802;52.402;4.920;2022-08-03T04:19:17;7.63;;;2.40;;
17369;SDS011;8802;52.402;4.920;2022-08-03T04:21:50;5.70;;;2.50;;
17369;SDS011;8802;52.402;4.920;2022-08-03T04:24:19;9.85;;;2.80;;
17369;SDS011;8802;52.402;4.920;2022-08-03T04:26:48;4.63;;;2.28;;
17369;SDS011;8802;52.402;4.920;2022-08-03T04:29:16;6.15;;;2.35;;
17369;SDS011;8802;52.402;4.920;2022-08-03T04:31:46;8.10;;;2.72;;
17369;SDS011;8802;52.402;4.920;2022-08-03T04:34:14;10.80;;;3.80;;
17369;SDS011;8802;52.402;4.920;2022-08-03T04:36:43;9.43;;;3.50;;
17369;SDS011;8802;52.402;4.920;2022-08-03T04:39:15;9.32;;;4.43;;
17369;SDS011;8802;52.402;4.920;2022-08-03T04:41:44;10.10;;;4.93;;
17369;SDS011;8802;52.402;4.920;2022-08-03T04:44:13;9.52;;;4.47;;
17369;SDS011;8802;52.402;4.920;2022-08-03T04:46:42;9.98;;;5.18;;
17369;SDS011;8802;52.402;4.920;2022-08-03T04:49:10;11.30;;;5.00;;
17369;SDS011;8802;52.402;4.920;2022-08-03T04:51:38;10.32;;;3.80;;
17369;SDS011;8802;52.402;4.920;2022-08-03T04:54:06;10.52;;;4.90;;
17369;SDS011;8802;52.402;4.920;2022-08-03T04:56:38;14.82;;;4.95;;
17369;SDS011;8802;52.402;4.920;2022-08-03T04:59:05;9.90;;;4.32;;
17369;SDS011;8802;52.402;4.920;2022-08-03T05:01:32;12.98;;;5.30;;
17369;SDS011;8802;52.402;4.920;2022-08-03T05:03:59;10.75;;;5.15;;
17369;SDS011;8802;52.402;4.920;2022-08-03T05:06:28;10.10;;;5.00;;
17369;SDS011;8802;52.402;4.920;2022-08-03T05:08:55;11.48;;;4.93;;
17369;SDS011;8802;52.402;4.920;2022-08-03T05:11:22;15.60;;;5.72;;
17369;SDS011;8802;52.402;4.920;2022-08-03T05:13:49;11.32;;;5.18;;
17369;SDS011;8802;52.402;4.920;2022-08-03T05:16:16;11.95;;;4.72;;
17369;SDS011;8802;52.402;4.920;2022-08-03T05:18:43;6.95;;;4.22;;
17369;SDS011;8802;52.402;4.920;2022-08-03T05:21:10;10.20;;;4.40;;
17369;SDS011;8802;52.402;4.920;2022-08-03T05:23:39;8.43;;;4.10;;
17369;SDS011;8802;52.402;4.920;2022-08-03T05:26:06;10.20;;;4.18;;
17369;SDS011;8802;52.402;4.920;2022-08-03T05:28:35;12.10;;;3.88;;
17369;SDS011;8802;52.402;4.920;2022-08-03T05:31:02;10.70;;;4.47;;
17369;SDS011;8802;52.402;4.920;2022-08-03T05:33:29;11.13;;;4.20;;
17369;SDS011;8802;52.402;4.920;2022-08-03T05:35:56;10.73;;;4.38;;
17369;SDS011;8802;52.402;4.920;2022-08-03T05:38:23;9.13;;;3.85;;
17369;SDS011;8802;52.402;4.920;2022-08-03T05:40:52;10.88;;;4.55;;
17369;SDS011;8802;52.402;4.920;2022-08-03T05:43:19;10.43;;;4.15;;
17369;SDS011;8802;52.402;4.920;2022-08-03T05:45:46;10.05;;;3.95;;
17369;SDS011;8802;52.402;4.920;2022-08-03T05:48:13;10.80;;;4.25;;
17369;SDS011;8802;52.402;4.920;2022-08-03T05:50:40;9.90;;;4.00;;
17369;SDS011;8802;52.402;4.920;2022-08-03T05:53:07;14.55;;;4.82;;
17369;SDS011;8802;52.402;4.920;2022-08-03T05:55:34;10.55;;;4.70;;
17369;SDS011;8802;52.402;4.920;2022-08-03T05:58:02;11.07;;;4.63;;
17369;SDS011;8802;52.402;4.920;2022-08-03T06:00:29;15.70;;;5.38;;
17369;SDS011;8802;52.402;4.920;2022-08-03T06:02:56;15.00;;;4.47;;
17369;SDS011;8802;52.402;4.920;2022-08-03T06:05:24;11.15;;;5.25;;
17369;SDS011;8802;52.402;4.920;2022-08-03T06:07:52;9.63;;;3.90;;
17369;SDS011;8802;52.402;4.920;2022-08-03T06:10:19;12.20;;;5.32;;
17369;SDS011;8802;52.402;4.920;2022-08-03T06:12:46;9.07;;;4.80;;
17369;SDS011;8802;52.402;4.920;2022-08-03T06:15:16;15.50;;;5.47;;
17369;SDS011;8802;52.402;4.920;2022-08-03T06:17:44;11.48;;;5.60;;
17369;SDS011;8802;52.402;4.920;2022-08-03T06:20:12;8.85;;;5.32;;
17369;SDS011;8802;52.402;4.920;2022-08-03T06:22:39;16.35;;;6.07;;
17369;SDS011;8802;52.402;4.920;2022-08-03T06:25:07;14.63;;;6.35;;
17369;SDS011;8802;52.402;4.920;2022-08-03T06:27:34;11.38;;;5.40;;
17369;SDS011;8802;52.402;4.920;2022-08-03T06:30:04;15.57;;;6.78;;
17369;SDS011;8802;52.402;4.920;2022-08-03T06:32:35;13.93;;;6.93;;
17369;SDS011;8802;52.402;4.920;2022-08-03T06:35:03;15.88;;;7.18;;
17369;SDS011;8802;52.402;4.920;2022-08-03T06:37:40;20.50;;;7.60;;
17369;SDS011;8802;52.402;4.920;2022-08-03T06:40:09;17.95;;;7.22;;
17369;SDS011;8802;52.402;4.920;2022-08-03T06:42:37;13.88;;;7.05;;
17369;SDS011;8802;52.402;4.920;2022-08-03T06:45:04;17.80;;;8.15;;
17369;SDS011;8802;52.402;4.920;2022-08-03T06:47:33;13.25;;;7.13;;
17369;SDS011;8802;52.402;4.920;2022-08-03T06:50:01;16.30;;;8.10;;
17369;SDS011;8802;52.402;4.920;2022-08-03T06:52:28;13.10;;;7.53;;
17369;SDS011;8802;52.402;4.920;2022-08-03T06:54:55;16.33;;;8.57;;
17369;SDS011;8802;52.402;4.920;2022-08-03T06:57:22;20.90;;;8.52;;
17369;SDS011;8802;52.402;4.920;2022-08-03T06:59:49;12.77;;;7.70;;
17369;SDS011;8802;52.402;4.920;2022-08-03T07:02:16;14.98;;;8.18;;
17369;SDS011;8802;52.402;4.920;2022-08-03T07:04:44;12.80;;;8.32;;
17369;SDS011;8802;52.402;4.920;2022-08-03T07:07:12;15.90;;;9.00;;
17369;SDS011;8802;52.402;4.920;2022-08-03T07:09:39;17.65;;;8.20;;
17369;SDS011;8802;52.402;4.920;2022-08-03T07:12:07;16.70;;;7.97;;
17369;SDS011;8802;52.402;4.920;2022-08-03T07:14:38;12.75;;;7.53;;
17369;SDS011;8802;52.402;4.920;2022-08-03T07:17:05;13.30;;;7.88;;
17369;SDS011;8802;52.402;4.920;2022-08-03T07:19:35;16.65;;;9.60;;
17369;SDS011;8802;52.402;4.920;2022-08-03T07:22:12;19.55;;;9.77;;
17369;SDS011;8802;52.402;4.920;2022-08-03T07:24:39;16.40;;;9.48;;
17369;SDS011;8802;52.402;4.920;2022-08-03T07:27:06;11.70;;;9.65;;
17369;SDS011;8802;52.402;4.920;2022-08-03T07:29:34;15.48;;;10.00;;
17369;SDS011;8802;52.402;4.920;2022-08-03T07:32:01;16.42;;;10.18;;
17369;SDS011;8802;52.402;4.920;2022-08-03T07:34:29;14.52;;;9.40;;
17369;SDS011;8802;52.402;4.920;2022-08-03T07:36:56;14.98;;;9.32;;
17369;SDS011;8802;52.402;4.920;2022-08-03T07:39:25;15.52;;;8.90;;
17369;SDS011;8802;52.402;4.920;2022-08-03T07:41:51;12.80;;;9.70;;
17369;SDS011;8802;52.402;4.920;2022-08-03T07:44:18;16.33;;;10.15;;
17369;SDS011;8802;52.402;4.920;2022-08-03T07:46:46;18.02;;;8.43;;
17369;SDS011;8802;52.402;4.920;2022-08-03T07:49:14;15.38;;;8.93;;
17369;SDS011;8802;52.402;4.920;2022-08-03T07:51:41;17.17;;;7.80;;
17369;SDS011;8802;52.402;4.920;2022-08-03T07:54:09;14.43;;;8.57;;
17369;SDS011;8802;52.402;4.920;2022-08-03T07:56:37;15.15;;;8.52;;
17369;SDS011;8802;52.402;4.920;2022-08-03T07:59:04;16.92;;;8.63;;
17369;SDS011;8802;52.402;4.920;2022-08-03T08:01:31;17.02;;;8.43;;
17369;SDS011;8802;52.402;4.920;2022-08-03T08:04:00;12.75;;;8.73;;
17369;SDS011;8802;52.402;4.920;2022-08-03T08:06:27;23.67;;;11.75;;
17369;SDS011;8802;52.402;4.920;2022-08-03T08:08:56;14.27;;;9.38;;
17369;SDS011;8802;52.402;4.920;2022-08-03T08:11:25;14.32;;;9.45;;
17369;SDS011;8802;52.402;4.920;2022-08-03T08:13:54;14.88;;;10.05;;
17369;SDS011;8802;52.402;4.920;2022-08-03T08:16:20;12.88;;;10.63;;
17369;SDS011;8802;52.402;4.920;2022-08-03T08:18:47;15.55;;;10.80;;
17369;SDS011;8802;52.402;4.920;2022-08-03T08:21:14;13.55;;;10.90;;
17369;SDS011;8802;52.402;4.920;2022-08-03T08:23:41;13.48;;;10.27;;
17369;SDS011;8802;52.402;4.920;2022-08-03T08:26:08;15.73;;;10.15;;
17369;SDS011;8802;52.402;4.920;2022-08-03T08:28:35;18.27;;;11.20;;
17369;SDS011;8802;52.402;4.920;2022-08-03T08:31:03;17.30;;;10.63;;
17369;SDS011;8802;52.402;4.920;2022-08-03T08:33:30;15.48;;;11.55;;
17369;SDS011;8802;52.402;4.920;2022-08-03T08:35:58;22.58;;;11.18;;
17369;SDS011;8802;52.402;4.920;2022-08-03T08:38:25;17.77;;;11.32;;
17369;SDS011;8802;52.402;4.920;2022-08-03T08:40:53;22.80;;;12.38;;
17369;SDS011;8802;52.402;4.920;2022-08-03T08:43:21;18.05;;;14.02;;
17369;SDS011;8802;52.402;4.920;2022-08-03T08:45:48;17.73;;;13.40;;
17369;SDS011;8802;52.402;4.920;2022-08-03T08:48:18;19.20;;;12.60;;
17369;SDS011;8802;52.402;4.920;2022-08-03T08:50:51;15.70;;;12.10;;
17369;SDS011;8802;52.402;4.920;2022-08-03T08:53:19;20.75;;;13.05;;
17369;SDS011;8802;52.402;4.920;2022-08-03T08:55:47;16.25;;;13.35;;
17369;SDS011;8802;52.402;4.920;2022-08-03T08:58:16;14.13;;;11.00;;
17369;SDS011;8802;52.402;4.920;2022-08-03T09:00:46;19.20;;;13.02;;
17369;SDS011;8802;52.402;4.920;2022-08-03T09:03:14;16.90;;;11.48;;
17369;SDS011;8802;52.402;4.920;2022-08-03T09:05:43;15.27;;;10.82;;
17369;SDS011;8802;52.402;4.920;2022-08-03T09:08:11;11.80;;;9.85;;
17369;SDS011;8802;52.402;4.920;2022-08-03T09:10:38;16.90;;;10.77;;
17369;SDS011;8802;52.402;4.920;2022-08-03T09:13:05;16.90;;;11.00;;
17369;SDS011;8802;52.402;4.920;2022-08-03T09:15:33;11.15;;;9.82;;
17369;SDS011;8802;52.402;4.920;2022-08-03T09:18:02;15.38;;;10.40;;
17369;SDS011;8802;52.402;4.920;2022-08-03T09:20:31;11.90;;;9.07;;
17369;SDS011;8802;52.402;4.920;2022-08-03T09:23:02;15.52;;;9.05;;
17369;SDS011;8802;52.402;4.920;2022-08-03T09:25:33;14.18;;;8.77;;
17369;SDS011;8802;52.402;4.920;2022-08-03T09:28:03;16.33;;;9.55;;
17369;SDS011;8802;52.402;4.920;2022-08-03T09:30:35;14.35;;;9.32;;
17369;SDS011;8802;52.402;4.920;2022-08-03T09:33:04;14.32;;;8.45;;
17369;SDS011;8802;52.402;4.920;2022-08-03T09:35:32;12.80;;;8.23;;
17369;SDS011;8802;52.402;4.920;2022-08-03T09:38:13;10.77;;;8.23;;
17369;SDS011;8802;52.402;4.920;2022-08-03T09:40:40;13.35;;;8.23;;
17369;SDS011;8802;52.402;4.920;2022-08-03T09:43:08;14.32;;;7.93;;
17369;SDS011;8802;52.402;4.920;2022-08-03T09:45:35;12.95;;;6.82;;
17369;SDS011;8802;52.402;4.920;2022-08-03T09:48:22;13.50;;;7.65;;
17369;SDS011;8802;52.402;4.920;2022-08-03T09:50:50;12.48;;;7.38;;
17369;SDS011;8802;52.402;4.920;2022-08-03T09:53:20;11.75;;;7.32;;
17369;SDS011;8802;52.402;4.920;2022-08-03T09:55:54;12.18;;;7.00;;
17369;SDS011;8802;52.402;4.920;2022-08-03T09:58:22;12.35;;;7.15;;
17369;SDS011;8802;52.402;4.920;2022-08-03T10:00:53;12.57;;;7.38;;
17369;SDS011;8802;52.402;4.920;2022-08-03T10:03:22;11.98;;;7.80;;
17369;SDS011;8802;52.402;4.920;2022-08-03T10:05:51;13.95;;;7.10;;
17369;SDS011;8802;52.402;4.920;2022-08-03T10:08:20;12.77;;;7.15;;
17369;SDS011;8802;52.402;4.920;2022-08-03T10:10:49;12.52;;;6.95;;
17369;SDS011;8802;52.402;4.920;2022-08-03T10:13:19;17.27;;;6.90;;
17369;SDS011;8802;52.402;4.920;2022-08-03T10:15:47;11.07;;;5.88;;
17369;SDS011;8802;52.402;4.920;2022-08-03T10:18:14;15.35;;;6.55;;
17369;SDS011;8802;52.402;4.920;2022-08-03T10:20:42;11.85;;;6.35;;
17369;SDS011;8802;52.402;4.920;2022-08-03T10:23:14;11.27;;;6.38;;
17369;SDS011;8802;52.402;4.920;2022-08-03T10:25:46;15.52;;;6.45;;
17369;SDS011;8802;52.402;4.920;2022-08-03T10:28:15;14.55;;;6.10;;
17369;SDS011;8802;52.402;4.920;2022-08-03T10:30:46;15.05;;;5.88;;
17369;SDS011;8802;52.402;4.920;2022-08-03T10:33:16;9.68;;;5.50;;
17369;SDS011;8802;52.402;4.920;2022-08-03T10:35:46;10.02;;;6.03;;
17369;SDS011;8802;52.402;4.920;2022-08-03T10:38:17;11.25;;;5.43;;
17369;SDS011;8802;52.402;4.920;2022-08-03T10:40:47;10.52;;;6.75;;
17369;SDS011;8802;52.402;4.920;2022-08-03T10:43:20;10.45;;;6.13;;
17369;SDS011;8802;52.402;4.920;2022-08-03T10:45:48;10.05;;;5.93;;
17369;SDS011;8802;52.402;4.920;2022-08-03T10:48:15;14.48;;;6.22;;
17369;SDS011;8802;52.402;4.920;2022-08-03T10:50:43;11.07;;;5.72;;
17369;SDS011;8802;52.402;4.920;2022-08-03T10:53:10;12.00;;;5.22;;
17369;SDS011;8802;52.402;4.920;2022-08-03T10:55:37;10.40;;;5.63;;
17369;SDS011;8802;52.402;4.920;2022-08-03T11:01:14;15.45;;;5.18;;
17369;SDS011;8802;52.402;4.920;2022-08-03T11:06:42;11.65;;;5.45;;
17369;SDS011;8802;52.402;4.920;2022-08-03T11:09:14;7.47;;;5.10;;
17369;SDS011;8802;52.402;4.920;2022-08-03T11:11:42;7.47;;;4.90;;
17369;SDS011;8802;52.402;4.920;2022-08-03T11:14:12;10.90;;;5.78;;
17369;SDS011;8802;52.402;4.920;2022-08-03T11:16:41;11.82;;;5.38;;
17369;SDS011;8802;52.402;4.920;2022-08-03T11:19:11;10.23;;;5.30;;
17369;SDS011;8802;52.402;4.920;2022-08-03T11:21:56;11.90;;;5.35;;
17369;SDS011;8802;52.402;4.920;2022-08-03T11:27:24;7.93;;;4.65;;
17369;SDS011;8802;52.402;4.920;2022-08-03T11:29:57;8.93;;;3.90;;
17369;SDS011;8802;52.402;4.920;2022-08-03T11:35:20;9.18;;;4.40;;
17369;SDS011;8802;52.402;4.920;2022-08-03T11:38:07;13.30;;;4.93;;
17369;SDS011;8802;52.402;4.920;2022-08-03T11:40:37;8.25;;;3.92;;
17369;SDS011;8802;52.402;4.920;2022-08-03T11:43:06;8.73;;;3.95;;
17369;SDS011;8802;52.402;4.920;2022-08-03T11:45:36;13.73;;;3.83;;
17369;SDS011;8802;52.402;4.920;2022-08-03T11:48:12;9.02;;;4.40;;
17369;SDS011;8802;52.402;4.920;2022-08-03T11:50:40;11.13;;;4.00;;
17369;SDS011;8802;52.402;4.920;2022-08-03T11:53:12;7.63;;;4.00;;
17369;SDS011;8802;52.402;4.920;2022-08-03T11:55:41;11.55;;;4.13;;
17369;SDS011;8802;52.402;4.920;2022-08-03T11:58:14;12.00;;;3.72;;
17369;SDS011;8802;52.402;4.920;2022-08-03T12:00:43;10.05;;;4.30;;
17369;SDS011;8802;52.402;4.920;2022-08-03T12:03:11;10.75;;;4.72;;
17369;SDS011;8802;52.402;4.920;2022-08-03T12:05:49;8.98;;;3.85;;
17369;SDS011;8802;52.402;4.920;2022-08-03T12:08:20;13.82;;;4.38;;
17369;SDS011;8802;52.402;4.920;2022-08-03T12:10:56;9.55;;;3.58;;
17369;SDS011;8802;52.402;4.920;2022-08-03T12:13:24;15.93;;;3.38;;
17369;SDS011;8802;52.402;4.920;2022-08-03T12:15:53;9.32;;;3.83;;
17369;SDS011;8802;52.402;4.920;2022-08-03T12:18:23;11.68;;;2.95;;
17369;SDS011;8802;52.402;4.920;2022-08-03T12:20:51;9.80;;;3.05;;
17369;SDS011;8802;52.402;4.920;2022-08-03T12:23:18;7.45;;;2.90;;
17369;SDS011;8802;52.402;4.920;2022-08-03T12:25:46;9.40;;;3.38;;
17369;SDS011;8802;52.402;4.920;2022-08-03T12:28:14;6.63;;;2.88;;
17369;SDS011;8802;52.402;4.920;2022-08-03T12:30:43;8.23;;;3.38;;
17369;SDS011;8802;52.402;4.920;2022-08-03T12:33:17;8.82;;;3.00;;
17369;SDS011;8802;52.402;4.920;2022-08-03T12:35:48;8.45;;;2.88;;
17369;SDS011;8802;52.402;4.920;2022-08-03T12:38:26;11.27;;;2.78;;
17369;SDS011;8802;52.402;4.920;2022-08-03T12:40:57;8.52;;;2.83;;
17369;SDS011;8802;52.402;4.920;2022-08-03T12:43:25;9.40;;;2.65;;
17369;SDS011;8802;52.402;4.920;2022-08-03T12:46:05;6.18;;;2.97;;
17369;SDS011;8802;52.402;4.920;2022-08-03T12:48:34;8.27;;;2.70;;
17369;SDS011;8802;52.402;4.920;2022-08-03T12:51:07;6.70;;;2.60;;
17369;SDS011;8802;52.402;4.920;2022-08-03T12:53:35;11.25;;;2.78;;
17369;SDS011;8802;52.402;4.920;2022-08-03T12:56:02;10.55;;;2.88;;
17369;SDS011;8802;52.402;4.920;2022-08-03T12:58:31;9.70;;;3.08;;
17369;SDS011;8802;52.402;4.920;2022-08-03T13:00:59;10.63;;;2.85;;
17369;SDS011;8802;52.402;4.920;2022-08-03T13:03:26;9.00;;;2.90;;
17369;SDS011;8802;52.402;4.920;2022-08-03T13:05:55;8.65;;;2.33;;
17369;SDS011;8802;52.402;4.920;2022-08-03T13:08:23;11.70;;;2.70;;
17369;SDS011;8802;52.402;4.920;2022-08-03T13:10:51;9.63;;;2.30;;
17369;SDS011;8802;52.402;4.920;2022-08-03T13:13:18;13.13;;;3.33;;
17369;SDS011;8802;52.402;4.920;2022-08-03T13:15:59;8.23;;;2.10;;
17369;SDS011;8802;52.402;4.920;2022-08-03T13:18:26;11.40;;;2.60;;
17369;SDS011;8802;52.402;4.920;2022-08-03T13:20:54;11.07;;;2.90;;
17369;SDS011;8802;52.402;4.920;2022-08-03T13:23:22;12.05;;;2.78;;
17369;SDS011;8802;52.402;4.920;2022-08-03T13:25:50;11.55;;;2.60;;
17369;SDS011;8802;52.402;4.920;2022-08-03T13:28:17;11.00;;;1.98;;
17369;SDS011;8802;52.402;4.920;2022-08-03T13:30:43;5.90;;;2.25;;
17369;SDS011;8802;52.402;4.920;2022-08-03T13:33:10;10.18;;;2.47;;
17369;SDS011;8802;52.402;4.920;2022-08-03T13:35:37;10.13;;;2.60;;
17369;SDS011;8802;52.402;4.920;2022-08-03T13:38:05;14.35;;;3.22;;
17369;SDS011;8802;52.402;4.920;2022-08-03T13:40:32;13.48;;;2.50;;
17369;SDS011;8802;52.402;4.920;2022-08-03T13:43:00;8.93;;;2.92;;
17369;SDS011;8802;52.402;4.920;2022-08-03T13:45:26;11.10;;;2.75;;
17369;SDS011;8802;52.402;4.920;2022-08-03T13:47:53;10.98;;;2.28;;
17369;SDS011;8802;52.402;4.920;2022-08-03T13:50:20;12.38;;;2.50;;
17369;SDS011;8802;52.402;4.920;2022-08-03T13:52:47;11.25;;;2.15;;
17369;SDS011;8802;52.402;4.920;2022-08-03T13:55:15;8.90;;;2.47;;
17369;SDS011;8802;52.402;4.920;2022-08-03T13:57:42;9.75;;;2.97;;
17369;SDS011;8802;52.402;4.920;2022-08-03T14:00:09;6.88;;;1.90;;
17369;SDS011;8802;52.402;4.920;2022-08-03T14:02:37;9.60;;;2.28;;
17369;SDS011;8802;52.402;4.920;2022-08-03T14:05:04;7.22;;;2.10;;
17369;SDS011;8802;52.402;4.920;2022-08-03T14:07:32;6.55;;;1.85;;
17369;SDS011;8802;52.402;4.920;2022-08-03T14:09:59;6.38;;;2.35;;
17369;SDS011;8802;52.402;4.920;2022-08-03T14:12:27;6.80;;;2.00;;
17369;SDS011;8802;52.402;4.920;2022-08-03T14:14:54;6.68;;;1.77;;
17369;SDS011;8802;52.402;4.920;2022-08-03T14:17:21;8.20;;;2.30;;
17369;SDS011;8802;52.402;4.920;2022-08-03T14:19:48;7.35;;;2.00;;
17369;SDS011;8802;52.402;4.920;2022-08-03T14:22:15;8.20;;;2.15;;
17369;SDS011;8802;52.402;4.920;2022-08-03T14:24:41;5.53;;;1.85;;
17369;SDS011;8802;52.402;4.920;2022-08-03T14:27:08;6.05;;;1.92;;
17369;SDS011;8802;52.402;4.920;2022-08-03T14:29:37;7.72;;;2.40;;
17369;SDS011;8802;52.402;4.920;2022-08-03T14:32:03;8.88;;;2.15;;
17369;SDS011;8802;52.402;4.920;2022-08-03T14:34:31;7.18;;;2.15;;
17369;SDS011;8802;52.402;4.920;2022-08-03T14:36:58;9.90;;;2.05;;
17369;SDS011;8802;52.402;4.920;2022-08-03T14:39:24;8.00;;;2.10;;
17369;SDS011;8802;52.402;4.920;2022-08-03T14:41:51;6.82;;;2.50;;
17369;SDS011;8802;52.402;4.920;2022-08-03T14:44:18;8.80;;;2.38;;
17369;SDS011;8802;52.402;4.920;2022-08-03T14:46:47;7.53;;;2.00;;
17369;SDS011;8802;52.402;4.920;2022-08-03T14:49:13;10.63;;;2.40;;
17369;SDS011;8802;52.402;4.920;2022-08-03T14:51:40;5.68;;;2.00;;
17369;SDS011;8802;52.402;4.920;2022-08-03T14:54:07;9.15;;;2.55;;
17369;SDS011;8802;52.402;4.920;2022-08-03T14:56:34;9.40;;;2.53;;
17369;SDS011;8802;52.402;4.920;2022-08-03T14:59:02;8.85;;;2.50;;
17369;SDS011;8802;52.402;4.920;2022-08-03T15:01:28;6.38;;;1.50;;
17369;SDS011;8802;52.402;4.920;2022-08-03T15:03:57;9.57;;;2.00;;
17369;SDS011;8802;52.402;4.920;2022-08-03T15:06:24;5.85;;;1.88;;
17369;SDS011;8802;52.402;4.920;2022-08-03T15:08:51;6.95;;;1.92;;
17369;SDS011;8802;52.402;4.920;2022-08-03T15:11:18;7.30;;;2.13;;
17369;SDS011;8802;52.402;4.920;2022-08-03T15:13:45;10.48;;;1.70;;
17369;SDS011;8802;52.402;4.920;2022-08-03T15:16:12;3.40;;;1.45;;
17369;SDS011;8802;52.402;4.920;2022-08-03T15:18:39;6.78;;;1.42;;